sensor_id;sensor_type;location;lat;lon;timestamp;pressure;altitude;pressure_sealevel;temperature;humidity
60920;BME280;59039;52.108;19.942;2023-06-14T00:00:35;100761.41;;;13.09;82.93
60920;BME280;59039;52.108;19.942;2023-06-14T00:03:07;100762.92;;;13.10;82.90
60920;BME280;59039;52.108;19.942;2023-06-14T00:05:44;100760.65;;;13.13;82.88
60920;BME280;59039;52.108;19.942;2023-06-14T00:08:34;100765.20;;;13.14;82.72
60920;BME280;59039;52.108;19.942;2023-06-14T00:13:46;100765.23;;;13.17;83.45
60920;BME280;59039;52.108;19.942;2023-06-14T00:16:14;100763.02;;;13.16;83.14
60920;BME280;59039;52.108;19.942;2023-06-14T00:21:56;100755.55;;;13.19;83.46
60920;BME280;59039;52.108;19.942;2023-06-14T00:24:41;100751.02;;;13.21;83.62
60920;BME280;59039;52.108;19.942;2023-06-14T00:30:17;100760.11;;;13.23;83.28
60920;BME280;59039;52.108;19.942;2023-06-14T00:33:04;100755.93;;;13.25;83.44
60920;BME280;59039;52.108;19.942;2023-06-14T00:35:38;100751.04;;;13.24;83.30
60920;BME280;59039;52.108;19.942;2023-06-14T00:38:16;100748.77;;;13.25;83.17
60920;BME280;59039;52.108;19.942;2023-06-14T00:41:01;100747.11;;;13.27;83.29
60920;BME280;59039;52.108;19.942;2023-06-14T00:43:30;100742.30;;;13.30;83.66
60920;BME280;59039;52.108;19.942;2023-06-14T00:46:17;100743.56;;;13.32;83.13
60920;BME280;59039;52.108;19.942;2023-06-14T00:49:04;100738.08;;;13.33;83.41
60920;BME280;59039;52.108;19.942;2023-06-14T00:51:38;100743.69;;;13.35;83.41
60920;BME280;59039;52.108;19.942;2023-06-14T00:54:04;100738.67;;;13.38;83.14
60920;BME280;59039;52.108;19.942;2023-06-14T00:56:31;100737.52;;;13.40;82.89
60920;BME280;59039;52.108;19.942;2023-06-14T00:58:57;100740.36;;;13.43;83.15
60920;BME280;59039;52.108;19.942;2023-06-14T01:04:42;100742.03;;;13.44;83.65
60920;BME280;59039;52.108;19.942;2023-06-14T01:07:18;100741.15;;;13.46;83.54
60920;BME280;59039;52.108;19.942;2023-06-14T01:10:28;100737.76;;;13.47;83.15
60920;BME280;59039;52.108;19.942;2023-06-14T01:13:35;100742.66;;;13.47;83.71
60920;BME280;59039;52.108;19.942;2023-06-14T01:16:08;100742.48;;;13.48;83.50
60920;BME280;59039;52.108;19.942;2023-06-14T01:18:39;100739.80;;;13.49;83.06
60920;BME280;59039;52.108;19.942;2023-06-14T01:21:25;100740.73;;;13.51;83.17
60920;BME280;59039;52.108;19.942;2023-06-14T01:24:32;100740.39;;;13.51;83.46
60920;BME280;59039;52.108;19.942;2023-06-14T01:27:06;100748.61;;;13.51;83.84
60920;BME280;59039;52.108;19.942;2023-06-14T01:29:42;100747.04;;;13.48;83.33
60920;BME280;59039;52.108;19.942;2023-06-14T01:35:17;100743.20;;;13.44;82.89
60920;BME280;59039;52.108;19.942;2023-06-14T01:43:54;100727.34;;;13.35;83.58
60920;BME280;59039;52.108;19.942;2023-06-14T01:49:27;100726.28;;;13.36;83.28
60920;BME280;59039;52.108;19.942;2023-06-14T01:54:54;100721.86;;;13.39;83.73
60920;BME280;59039;52.108;19.942;2023-06-14T01:57:39;100726.14;;;13.42;83.04
60920;BME280;59039;52.108;19.942;2023-06-14T02:00:05;100728.15;;;13.43;83.55
60920;BME280;59039;52.108;19.942;2023-06-14T02:05:16;100733.75;;;13.47;83.18
60920;BME280;59039;52.108;19.942;2023-06-14T02:08:05;100731.30;;;13.48;82.41
60920;BME280;59039;52.108;19.942;2023-06-14T02:11:10;100730.71;;;13.48;83.27
60920;BME280;59039;52.108;19.942;2023-06-14T02:13:35;100729.59;;;13.48;83.73
60920;BME280;59039;52.108;19.942;2023-06-14T02:16:22;100723.38;;;13.48;82.55
60920;BME280;59039;52.108;19.942;2023-06-14T02:18:56;100721.04;;;13.50;82.49
60920;BME280;59039;52.108;19.942;2023-06-14T02:22:02;100720.70;;;13.49;82.94
60920;BME280;59039;52.108;19.942;2023-06-14T02:24:34;100725.98;;;13.49;83.41
60920;BME280;59039;52.108;19.942;2023-06-14T02:27:10;100727.25;;;13.50;83.17
60920;BME280;59039;52.108;19.942;2023-06-14T02:32:31;100730.41;;;13.49;83.33
60920;BME280;59039;52.108;19.942;2023-06-14T02:35:17;100726.38;;;13.49;83.05
60920;BME280;59039;52.108;19.942;2023-06-14T02:38:03;100729.11;;;13.47;82.71
60920;BME280;59039;52.108;19.942;2023-06-14T02:43:14;100728.20;;;13.47;83.30
60920;BME280;59039;52.108;19.942;2023-06-14T02:48:41;100735.04;;;13.46;83.54
60920;BME280;59039;52.108;19.942;2023-06-14T02:51:09;100734.14;;;13.47;82.25
60920;BME280;59039;52.108;19.942;2023-06-14T02:53:37;100733.65;;;13.46;82.77
60920;BME280;59039;52.108;19.942;2023-06-14T02:56:06;100730.51;;;13.43;82.91
60920;BME280;59039;52.108;19.942;2023-06-14T02:58:40;100732.30;;;13.42;83.19
60920;BME280;59039;52.108;19.942;2023-06-14T03:01:28;100730.09;;;13.42;83.59
60920;BME280;59039;52.108;19.942;2023-06-14T03:04:12;100730.91;;;13.43;83.71
60920;BME280;59039;52.108;19.942;2023-06-14T03:06:41;100724.98;;;13.42;83.10
60920;BME280;59039;52.108;19.942;2023-06-14T03:09:09;100725.27;;;13.41;82.86
60920;BME280;59039;52.108;19.942;2023-06-14T03:17:19;100724.41;;;13.41;84.06
60920;BME280;59039;52.108;19.942;2023-06-14T03:20:26;100728.36;;;13.39;83.32
60920;BME280;59039;52.108;19.942;2023-06-14T03:22:54;100728.38;;;13.38;83.70
60920;BME280;59039;52.108;19.942;2023-06-14T03:25:39;100729.70;;;13.39;82.64
60920;BME280;59039;52.108;19.942;2023-06-14T03:28:46;100732.16;;;13.40;83.06
60920;BME280;59039;52.108;19.942;2023-06-14T03:31:13;100726.39;;;13.39;83.27
60920;BME280;59039;52.108;19.942;2023-06-14T03:33:49;100726.35;;;13.38;83.55
60920;BME280;59039;52.108;19.942;2023-06-14T03:36:17;100726.77;;;13.39;83.39
60920;BME280;59039;52.108;19.942;2023-06-14T03:39:12;100728.89;;;13.41;83.23
60920;BME280;59039;52.108;19.942;2023-06-14T03:41:37;100733.69;;;13.42;83.22
60920;BME280;59039;52.108;19.942;2023-06-14T03:46:48;100736.15;;;13.45;84.05
60920;BME280;59039;52.108;19.942;2023-06-14T03:49:16;100733.92;;;13.45;83.63
60920;BME280;59039;52.108;19.942;2023-06-14T03:54:32;100732.69;;;13.45;83.88
60920;BME280;59039;52.108;19.942;2023-06-14T03:56:58;100729.41;;;13.45;83.78
60920;BME280;59039;52.108;19.942;2023-06-14T04:02:20;100731.73;;;13.45;84.14
60920;BME280;59039;52.108;19.942;2023-06-14T04:04:56;100731.50;;;13.44;83.82
60920;BME280;59039;52.108;19.942;2023-06-14T04:07:22;100730.73;;;13.43;84.06
60920;BME280;59039;52.108;19.942;2023-06-14T04:13:16;100734.86;;;13.45;84.94
60920;BME280;59039;52.108;19.942;2023-06-14T04:16:00;100733.79;;;13.48;84.77
60920;BME280;59039;52.108;19.942;2023-06-14T04:18:45;100734.62;;;13.52;84.65
60920;BME280;59039;52.108;19.942;2023-06-14T04:21:13;100733.89;;;13.57;84.21
60920;BME280;59039;52.108;19.942;2023-06-14T04:24:10;100731.92;;;13.62;84.34
60920;BME280;59039;52.108;19.942;2023-06-14T04:26:59;100734.63;;;13.67;84.84
60920;BME280;59039;52.108;19.942;2023-06-14T04:29:42;100736.20;;;13.71;84.59
60920;BME280;59039;52.108;19.942;2023-06-14T04:32:36;100737.91;;;13.72;84.51
60920;BME280;59039;52.108;19.942;2023-06-14T04:35:03;100736.60;;;13.74;84.77
60920;BME280;59039;52.108;19.942;2023-06-14T04:37:49;100733.25;;;13.76;84.16
60920;BME280;59039;52.108;19.942;2023-06-14T04:40:20;100737.41;;;13.80;84.47
60920;BME280;59039;52.108;19.942;2023-06-14T04:45:45;100736.09;;;13.86;84.16
60920;BME280;59039;52.108;19.942;2023-06-14T04:48:33;100733.36;;;13.89;84.00
60920;BME280;59039;52.108;19.942;2023-06-14T04:54:00;100733.30;;;13.97;84.12
60920;BME280;59039;52.108;19.942;2023-06-14T04:56:36;100728.63;;;14.02;83.90
60920;BME280;59039;52.108;19.942;2023-06-14T04:59:01;100727.75;;;14.08;84.23
60920;BME280;59039;52.108;19.942;2023-06-14T05:01:27;100720.14;;;14.14;84.04
60920;BME280;59039;52.108;19.942;2023-06-14T05:03:57;100718.25;;;14.20;83.88
60920;BME280;59039;52.108;19.942;2023-06-14T05:06:44;100716.38;;;14.27;83.83
60920;BME280;59039;52.108;19.942;2023-06-14T05:11:52;100713.94;;;14.40;83.96
60920;BME280;59039;52.108;19.942;2023-06-14T05:14:20;100716.41;;;14.46;83.98
60920;BME280;59039;52.108;19.942;2023-06-14T05:16:48;100722.75;;;14.53;83.68
60920;BME280;59039;52.108;19.942;2023-06-14T05:19:14;100723.57;;;14.59;83.66
60920;BME280;59039;52.108;19.942;2023-06-14T05:21:39;100725.10;;;14.65;83.33
60920;BME280;59039;52.108;19.942;2023-06-14T05:24:05;100723.52;;;14.71;83.35
60920;BME280;59039;52.108;19.942;2023-06-14T05:26:48;100725.55;;;14.77;82.89
60920;BME280;59039;52.108;19.942;2023-06-14T05:29:25;100728.42;;;14.82;82.49
60920;BME280;59039;52.108;19.942;2023-06-14T05:31:50;100728.02;;;14.87;82.81
60920;BME280;59039;52.108;19.942;2023-06-14T05:34:16;100729.90;;;14.91;82.91
60920;BME280;59039;52.108;19.942;2023-06-14T05:36:50;100727.73;;;14.96;82.38
60920;BME280;59039;52.108;19.942;2023-06-14T05:39:16;100730.44;;;15.01;82.17
60920;BME280;59039;52.108;19.942;2023-06-14T05:41:42;100728.77;;;15.03;81.39
60920;BME280;59039;52.108;19.942;2023-06-14T05:44:15;100729.41;;;15.05;81.14
60920;BME280;59039;52.108;19.942;2023-06-14T05:49:41;100729.67;;;15.09;81.19
60920;BME280;59039;52.108;19.942;2023-06-14T05:55:15;100730.41;;;15.17;80.70
60920;BME280;59039;52.108;19.942;2023-06-14T05:57:40;100731.65;;;15.19;80.17
60920;BME280;59039;52.108;19.942;2023-06-14T06:00:07;100731.41;;;15.20;80.13
60920;BME280;59039;52.108;19.942;2023-06-14T06:02:32;100729.93;;;15.21;80.09
60920;BME280;59039;52.108;19.942;2023-06-14T06:04:58;100728.20;;;15.23;80.08
60920;BME280;59039;52.108;19.942;2023-06-14T06:07:23;100726.35;;;15.25;80.52
60920;BME280;59039;52.108;19.942;2023-06-14T06:09:49;100727.94;;;15.29;81.02
60920;BME280;59039;52.108;19.942;2023-06-14T06:12:14;100735.37;;;15.31;80.67
60920;BME280;59039;52.108;19.942;2023-06-14T06:15:00;100736.83;;;15.33;79.84
60920;BME280;59039;52.108;19.942;2023-06-14T06:17:37;100738.16;;;15.32;79.94
60920;BME280;59039;52.108;19.942;2023-06-14T06:22:41;100739.88;;;15.38;80.48
60920;BME280;59039;52.108;19.942;2023-06-14T06:25:16;100742.27;;;15.41;80.21
60920;BME280;59039;52.108;19.942;2023-06-14T06:27:41;100743.82;;;15.45;79.62
60920;BME280;59039;52.108;19.942;2023-06-14T06:30:19;100746.09;;;15.49;79.37
60920;BME280;59039;52.108;19.942;2023-06-14T06:32:45;100747.91;;;15.54;79.07
60920;BME280;59039;52.108;19.942;2023-06-14T06:35:16;100743.41;;;15.59;79.15
60920;BME280;59039;52.108;19.942;2023-06-14T06:37:42;100740.79;;;15.68;78.95
60920;BME280;59039;52.108;19.942;2023-06-14T06:40:08;100734.79;;;15.76;78.55
60920;BME280;59039;52.108;19.942;2023-06-14T06:42:37;100735.93;;;15.86;78.59
60920;BME280;59039;52.108;19.942;2023-06-14T06:45:12;100741.23;;;15.98;78.14
60920;BME280;59039;52.108;19.942;2023-06-14T06:47:40;100742.01;;;16.09;76.85
60920;BME280;59039;52.108;19.942;2023-06-14T06:50:17;100743.46;;;16.17;76.47
60920;BME280;59039;52.108;19.942;2023-06-14T06:52:45;100743.35;;;16.26;76.73
60920;BME280;59039;52.108;19.942;2023-06-14T06:55:13;100743.66;;;16.38;76.49
60920;BME280;59039;52.108;19.942;2023-06-14T07:00:26;100749.35;;;16.53;74.74
60920;BME280;59039;52.108;19.942;2023-06-14T07:03:11;100750.00;;;16.58;74.60
60920;BME280;59039;52.108;19.942;2023-06-14T07:05:40;100748.52;;;16.62;74.03
60920;BME280;59039;52.108;19.942;2023-06-14T07:08:08;100748.91;;;16.67;74.13
60920;BME280;59039;52.108;19.942;2023-06-14T07:10:33;100750.80;;;16.69;73.64
60920;BME280;59039;52.108;19.942;2023-06-14T07:13:01;100749.61;;;16.68;72.49
60920;BME280;59039;52.108;19.942;2023-06-14T07:15:26;100745.78;;;16.75;73.73
60920;BME280;59039;52.108;19.942;2023-06-14T07:17:52;100745.23;;;16.87;73.79
60920;BME280;59039;52.108;19.942;2023-06-14T07:20:20;100744.38;;;17.03;73.78
60920;BME280;59039;52.108;19.942;2023-06-14T07:23:06;100741.43;;;17.19;72.37
60920;BME280;59039;52.108;19.942;2023-06-14T07:25:32;100742.64;;;17.33;72.46
60920;BME280;59039;52.108;19.942;2023-06-14T07:27:57;100743.29;;;17.47;71.29
60920;BME280;59039;52.108;19.942;2023-06-14T07:30:25;100750.61;;;17.59;69.89
60920;BME280;59039;52.108;19.942;2023-06-14T07:32:53;100750.77;;;17.72;70.49
60920;BME280;59039;52.108;19.942;2023-06-14T07:35:22;100753.14;;;17.84;69.57
60920;BME280;59039;52.108;19.942;2023-06-14T07:38:07;100752.87;;;17.98;67.01
60920;BME280;59039;52.108;19.942;2023-06-14T07:40:33;100746.48;;;18.10;67.68
60920;BME280;59039;52.108;19.942;2023-06-14T07:42:58;100747.52;;;18.25;68.65
60920;BME280;59039;52.108;19.942;2023-06-14T07:45:24;100751.23;;;18.38;68.96
60920;BME280;59039;52.108;19.942;2023-06-14T07:47:49;100755.95;;;18.45;66.29
60920;BME280;59039;52.108;19.942;2023-06-14T07:50:17;100750.73;;;18.49;65.08
60920;BME280;59039;52.108;19.942;2023-06-14T07:52:46;100754.88;;;18.53;65.52
60920;BME280;59039;52.108;19.942;2023-06-14T07:55:14;100755.82;;;18.55;64.43
60920;BME280;59039;52.108;19.942;2023-06-14T07:57:40;100754.42;;;18.54;63.67
60920;BME280;59039;52.108;19.942;2023-06-14T08:00:09;100759.20;;;18.53;65.06
60920;BME280;59039;52.108;19.942;2023-06-14T08:02:42;100764.01;;;18.52;65.22
60920;BME280;59039;52.108;19.942;2023-06-14T08:05:10;100768.73;;;18.50;65.27
60920;BME280;59039;52.108;19.942;2023-06-14T08:07:41;100774.02;;;18.49;65.01
60920;BME280;59039;52.108;19.942;2023-06-14T08:10:13;100779.45;;;18.45;64.42
60920;BME280;59039;52.108;19.942;2023-06-14T08:12:41;100773.41;;;18.38;63.53
60920;BME280;59039;52.108;19.942;2023-06-14T08:15:27;100778.43;;;18.31;63.76
60920;BME280;59039;52.108;19.942;2023-06-14T08:17:52;100779.30;;;18.26;64.19
60920;BME280;59039;52.108;19.942;2023-06-14T08:20:20;100773.49;;;18.20;64.00
60920;BME280;59039;52.108;19.942;2023-06-14T08:22:49;100773.90;;;18.14;64.13
60920;BME280;59039;52.108;19.942;2023-06-14T08:25:34;100772.42;;;18.08;64.81
60920;BME280;59039;52.108;19.942;2023-06-14T08:28:07;100769.32;;;18.01;64.56
60920;BME280;59039;52.108;19.942;2023-06-14T08:30:53;100768.31;;;17.94;64.33
60920;BME280;59039;52.108;19.942;2023-06-14T08:33:30;100770.52;;;17.91;65.24
60920;BME280;59039;52.108;19.942;2023-06-14T08:35:58;100769.90;;;17.89;64.66
60920;BME280;59039;52.108;19.942;2023-06-14T08:38:26;100760.89;;;17.85;64.76
60920;BME280;59039;52.108;19.942;2023-06-14T08:40:52;100764.05;;;17.83;65.33
60920;BME280;59039;52.108;19.942;2023-06-14T08:43:22;100760.20;;;17.83;64.72
60920;BME280;59039;52.108;19.942;2023-06-14T08:45:59;100761.29;;;17.80;64.16
60920;BME280;59039;52.108;19.942;2023-06-14T08:48:51;100764.63;;;17.74;63.16
60920;BME280;59039;52.108;19.942;2023-06-14T08:51:25;100762.90;;;17.67;63.66
60920;BME280;59039;52.108;19.942;2023-06-14T08:54:14;100764.63;;;17.65;63.81
60920;BME280;59039;52.108;19.942;2023-06-14T08:56:41;100764.07;;;17.62;63.61
60920;BME280;59039;52.108;19.942;2023-06-14T08:59:09;100766.61;;;17.60;63.95
60920;BME280;59039;52.108;19.942;2023-06-14T09:01:43;100768.75;;;17.59;64.86
60920;BME280;59039;52.108;19.942;2023-06-14T09:04:33;100766.59;;;17.58;64.56
60920;BME280;59039;52.108;19.942;2023-06-14T09:07:01;100767.04;;;17.58;64.68
60920;BME280;59039;52.108;19.942;2023-06-14T09:09:29;100769.35;;;17.57;64.42
60920;BME280;59039;52.108;19.942;2023-06-14T09:11:55;100773.46;;;17.58;64.48
60920;BME280;59039;52.108;19.942;2023-06-14T09:14:23;100765.20;;;17.59;65.09
60920;BME280;59039;52.108;19.942;2023-06-14T09:16:55;100769.00;;;17.64;65.42
60920;BME280;59039;52.108;19.942;2023-06-14T09:19:27;100766.27;;;17.71;65.94
60920;BME280;59039;52.108;19.942;2023-06-14T09:21:53;100768.11;;;17.79;66.36
60920;BME280;59039;52.108;19.942;2023-06-14T09:24:19;100767.33;;;17.86;66.14
60920;BME280;59039;52.108;19.942;2023-06-14T09:26:47;100767.67;;;17.93;65.41
60920;BME280;59039;52.108;19.942;2023-06-14T09:29:21;100767.30;;;18.00;64.37
60920;BME280;59039;52.108;19.942;2023-06-14T09:31:50;100761.54;;;18.02;62.38
60920;BME280;59039;52.108;19.942;2023-06-14T09:34:19;100760.86;;;18.03;63.56
60920;BME280;59039;52.108;19.942;2023-06-14T09:36:45;100760.23;;;18.06;63.55
60920;BME280;59039;52.108;19.942;2023-06-14T09:39:21;100758.69;;;18.09;64.20
60920;BME280;59039;52.108;19.942;2023-06-14T09:41:46;100755.67;;;18.12;62.93
60920;BME280;59039;52.108;19.942;2023-06-14T09:44:11;100753.86;;;18.13;63.72
60920;BME280;59039;52.108;19.942;2023-06-14T09:46:39;100760.63;;;18.16;62.89
60920;BME280;59039;52.108;19.942;2023-06-14T09:49:05;100755.21;;;18.16;63.04
60920;BME280;59039;52.108;19.942;2023-06-14T09:54:22;100748.85;;;18.23;63.47
60920;BME280;59039;52.108;19.942;2023-06-14T09:56:48;100745.51;;;18.28;64.17
60920;BME280;59039;52.108;19.942;2023-06-14T09:59:19;100747.24;;;18.33;63.69
60920;BME280;59039;52.108;19.942;2023-06-14T10:01:49;100752.38;;;18.34;62.77
60920;BME280;59039;52.108;19.942;2023-06-14T10:04:35;100751.64;;;18.36;63.01
60920;BME280;59039;52.108;19.942;2023-06-14T10:07:07;100752.48;;;18.35;63.27
60920;BME280;59039;52.108;19.942;2023-06-14T10:09:34;100751.08;;;18.36;63.24
60920;BME280;59039;52.108;19.942;2023-06-14T10:12:09;100751.93;;;18.36;63.79
60920;BME280;59039;52.108;19.942;2023-06-14T10:14:35;100747.74;;;18.36;63.43
60920;BME280;59039;52.108;19.942;2023-06-14T10:19:56;100749.44;;;18.32;64.33
60920;BME280;59039;52.108;19.942;2023-06-14T10:22:30;100752.03;;;18.29;64.34
60920;BME280;59039;52.108;19.942;2023-06-14T10:24:58;100751.39;;;18.28;64.86
60920;BME280;59039;52.108;19.942;2023-06-14T10:27:28;100748.89;;;18.27;64.95
60920;BME280;59039;52.108;19.942;2023-06-14T10:32:20;100749.27;;;18.27;64.74
60920;BME280;59039;52.108;19.942;2023-06-14T10:34:53;100749.08;;;18.25;64.70
60920;BME280;59039;52.108;19.942;2023-06-14T10:37:19;100749.27;;;18.23;64.68
60920;BME280;59039;52.108;19.942;2023-06-14T10:39:47;100748.52;;;18.20;65.04
60920;BME280;59039;52.108;19.942;2023-06-14T10:42:17;100742.04;;;18.19;64.90
60920;BME280;59039;52.108;19.942;2023-06-14T10:50:09;100744.39;;;18.22;65.26
60920;BME280;59039;52.108;19.942;2023-06-14T10:52:40;100739.55;;;18.24;65.54
60920;BME280;59039;52.108;19.942;2023-06-14T10:55:15;100741.23;;;18.26;64.95
60920;BME280;59039;52.108;19.942;2023-06-14T10:57:46;100739.80;;;18.25;64.63
60920;BME280;59039;52.108;19.942;2023-06-14T11:00:22;100738.70;;;18.25;64.77
60920;BME280;59039;52.108;19.942;2023-06-14T11:05:52;100735.55;;;18.27;65.15
60920;BME280;59039;52.108;19.942;2023-06-14T11:14:36;100730.85;;;18.30;64.43
60920;BME280;59039;52.108;19.942;2023-06-14T11:17:01;100730.67;;;18.30;64.01
60920;BME280;59039;52.108;19.942;2023-06-14T11:19:29;100734.81;;;18.30;63.95
60920;BME280;59039;52.108;19.942;2023-06-14T11:21:57;100731.98;;;18.29;63.70
60920;BME280;59039;52.108;19.942;2023-06-14T11:24:22;100728.21;;;18.30;63.39
60920;BME280;59039;52.108;19.942;2023-06-14T11:26:48;100727.90;;;18.28;63.02
60920;BME280;59039;52.108;19.942;2023-06-14T11:29:16;100726.64;;;18.25;62.95
60920;BME280;59039;52.108;19.942;2023-06-14T11:32:00;100727.50;;;18.22;63.29
60920;BME280;59039;52.108;19.942;2023-06-14T11:34:28;100726.98;;;18.21;62.63
60920;BME280;59039;52.108;19.942;2023-06-14T11:36:54;100724.77;;;18.21;63.08
60920;BME280;59039;52.108;19.942;2023-06-14T11:39:24;100724.10;;;18.24;62.80
60920;BME280;59039;52.108;19.942;2023-06-14T11:41:50;100723.45;;;18.24;62.60
60920;BME280;59039;52.108;19.942;2023-06-14T11:44:42;100724.06;;;18.25;62.65
60920;BME280;59039;52.108;19.942;2023-06-14T11:47:09;100719.23;;;18.26;63.36
60920;BME280;59039;52.108;19.942;2023-06-14T11:49:40;100715.52;;;18.26;62.91
60920;BME280;59039;52.108;19.942;2023-06-14T11:52:06;100711.03;;;18.26;62.02
60920;BME280;59039;52.108;19.942;2023-06-14T11:54:32;100710.13;;;18.26;61.91
60920;BME280;59039;52.108;19.942;2023-06-14T11:56:58;100710.45;;;18.27;62.48
60920;BME280;59039;52.108;19.942;2023-06-14T11:59:26;100711.22;;;18.28;61.93
60920;BME280;59039;52.108;19.942;2023-06-14T12:01:55;100703.02;;;18.29;61.95
60920;BME280;59039;52.108;19.942;2023-06-14T12:04:24;100702.65;;;18.30;61.86
60920;BME280;59039;52.108;19.942;2023-06-14T12:06:49;100703.55;;;18.32;61.61
60920;BME280;59039;52.108;19.942;2023-06-14T12:09:17;100696.94;;;18.31;61.69
60920;BME280;59039;52.108;19.942;2023-06-14T12:11:42;100695.90;;;18.33;61.22
60920;BME280;59039;52.108;19.942;2023-06-14T12:14:11;100694.90;;;18.33;60.53
60920;BME280;59039;52.108;19.942;2023-06-14T12:16:40;100693.07;;;18.33;60.43
60920;BME280;59039;52.108;19.942;2023-06-14T12:19:13;100687.73;;;18.34;60.47
60920;BME280;59039;52.108;19.942;2023-06-14T12:21:39;100684.00;;;18.34;60.37
60920;BME280;59039;52.108;19.942;2023-06-14T12:24:05;100686.02;;;18.35;61.05
60920;BME280;59039;52.108;19.942;2023-06-14T12:26:30;100684.13;;;18.38;60.76
60920;BME280;59039;52.108;19.942;2023-06-14T12:28:56;100683.89;;;18.39;61.24
60920;BME280;59039;52.108;19.942;2023-06-14T12:31:30;100683.05;;;18.43;61.08
60920;BME280;59039;52.108;19.942;2023-06-14T12:33:56;100681.13;;;18.45;61.14
60920;BME280;59039;52.108;19.942;2023-06-14T12:36:21;100677.18;;;18.49;60.95
60920;BME280;59039;52.108;19.942;2023-06-14T12:38:47;100678.34;;;18.52;60.94
60920;BME280;59039;52.108;19.942;2023-06-14T12:41:15;100680.73;;;18.56;60.82
60920;BME280;59039;52.108;19.942;2023-06-14T12:43:41;100678.11;;;18.60;60.77
60920;BME280;59039;52.108;19.942;2023-06-14T12:46:06;100677.96;;;18.62;60.51
60920;BME280;59039;52.108;19.942;2023-06-14T12:48:34;100683.82;;;18.65;60.99
60920;BME280;59039;52.108;19.942;2023-06-14T12:51:00;100685.69;;;18.66;59.71
60920;BME280;59039;52.108;19.942;2023-06-14T12:53:25;100688.02;;;18.67;59.83
60920;BME280;59039;52.108;19.942;2023-06-14T12:55:51;100684.76;;;18.66;59.67
60920;BME280;59039;52.108;19.942;2023-06-14T12:58:19;100683.02;;;18.66;59.47
60920;BME280;59039;52.108;19.942;2023-06-14T13:00:44;100680.39;;;18.66;59.93
60920;BME280;59039;52.108;19.942;2023-06-14T13:03:10;100681.38;;;18.67;59.36
60920;BME280;59039;52.108;19.942;2023-06-14T13:05:43;100681.20;;;18.67;59.18
60920;BME280;59039;52.108;19.942;2023-06-14T13:08:08;100678.48;;;18.66;59.18
60920;BME280;59039;52.108;19.942;2023-06-14T13:10:36;100677.14;;;18.67;59.01
60920;BME280;59039;52.108;19.942;2023-06-14T13:13:14;100675.50;;;18.67;58.43
60920;BME280;59039;52.108;19.942;2023-06-14T13:15:44;100674.98;;;18.67;58.06
60920;BME280;59039;52.108;19.942;2023-06-14T13:18:15;100674.67;;;18.67;58.61
60920;BME280;59039;52.108;19.942;2023-06-14T13:20:41;100665.95;;;18.68;59.03
60920;BME280;59039;52.108;19.942;2023-06-14T13:23:07;100670.25;;;18.69;59.11
60920;BME280;59039;52.108;19.942;2023-06-14T13:25:36;100668.00;;;18.68;58.46
60920;BME280;59039;52.108;19.942;2023-06-14T13:28:04;100667.52;;;18.68;58.78
60920;BME280;59039;52.108;19.942;2023-06-14T13:30:30;100669.27;;;18.67;58.39
60920;BME280;59039;52.108;19.942;2023-06-14T13:32:57;100669.73;;;18.66;58.01
60920;BME280;59039;52.108;19.942;2023-06-14T13:35:23;100668.86;;;18.66;57.86
60920;BME280;59039;52.108;19.942;2023-06-14T13:37:49;100667.38;;;18.66;58.25
60920;BME280;59039;52.108;19.942;2023-06-14T13:40:14;100672.64;;;18.65;57.39
60920;BME280;59039;52.108;19.942;2023-06-14T13:42:49;100667.08;;;18.63;56.95
60920;BME280;59039;52.108;19.942;2023-06-14T13:45:15;100662.96;;;18.62;57.58
60920;BME280;59039;52.108;19.942;2023-06-14T13:47:41;100661.53;;;18.63;58.16
60920;BME280;59039;52.108;19.942;2023-06-14T13:50:06;100660.94;;;18.65;58.03
60920;BME280;59039;52.108;19.942;2023-06-14T13:52:32;100656.33;;;18.66;57.85
60920;BME280;59039;52.108;19.942;2023-06-14T13:55:00;100656.67;;;18.66;57.82
60920;BME280;59039;52.108;19.942;2023-06-14T13:57:35;100658.25;;;18.68;57.87
60920;BME280;59039;52.108;19.942;2023-06-14T14:00:00;100653.35;;;18.69;57.96
60920;BME280;59039;52.108;19.942;2023-06-14T14:02:32;100657.25;;;18.70;57.94
60920;BME280;59039;52.108;19.942;2023-06-14T14:04:57;100652.59;;;18.71;58.17
60920;BME280;59039;52.108;19.942;2023-06-14T14:07:23;100652.94;;;18.71;58.11
60920;BME280;59039;52.108;19.942;2023-06-14T14:09:48;100652.05;;;18.72;58.61
60920;BME280;59039;52.108;19.942;2023-06-14T14:12:16;100653.91;;;18.73;58.87
60920;BME280;59039;52.108;19.942;2023-06-14T14:14:51;100653.23;;;18.73;59.08
60920;BME280;59039;52.108;19.942;2023-06-14T14:17:16;100650.02;;;18.72;58.89
60920;BME280;59039;52.108;19.942;2023-06-14T14:19:42;100649.00;;;18.71;59.00
60920;BME280;59039;52.108;19.942;2023-06-14T14:22:16;100650.83;;;18.72;57.74
60920;BME280;59039;52.108;19.942;2023-06-14T14:24:41;100647.94;;;18.71;56.71
60920;BME280;59039;52.108;19.942;2023-06-14T14:27:09;100647.14;;;18.72;56.25
60920;BME280;59039;52.108;19.942;2023-06-14T14:29:38;100650.82;;;18.73;56.46
60920;BME280;59039;52.108;19.942;2023-06-14T14:32:06;100654.34;;;18.73;54.79
60920;BME280;59039;52.108;19.942;2023-06-14T14:34:41;100655.40;;;18.72;55.19
60920;BME280;59039;52.108;19.942;2023-06-14T14:37:17;100656.29;;;18.73;55.17
60920;BME280;59039;52.108;19.942;2023-06-14T14:39:54;100653.48;;;18.72;53.73
60920;BME280;59039;52.108;19.942;2023-06-14T14:42:30;100652.95;;;18.74;54.03